LHBP/BUD METAR and TAF weather

Enter ICAO airport designator
Station Type Date Time Source
LHBP METAR 2021/01/20 23:30 UTC NOAA

LHBP 202330Z AUTO 19011KT 9999 BKN043/// 07/01 Q1014


Station Type Date Time Source
LHBP Decoded METAR 2021/01/20 23:30 UTC NOAA

Budapest / Ferihegy, Hungary (LHBP) 47-26N 019-16E 185M
Jan 20, 2021 - 06:30 PM EST / 2021.01.20 2330 UTC
Wind: from the S (190 degrees) at 13 MPH (11 KT):0
Visibility: greater than 7 mile(s):0
Sky conditions: mostly cloudy
Temperature: 44 F (7 C)
Dew Point: 33 F (1 C)
Relative Humidity: 65%
Pressure (altimeter): 29.94 in. Hg (1014 hPa)
ob: LHBP 202330Z AUTO 19011KT 9999 BKN043/// 07/01 Q1014
cycle: 23

Station Type Date Time Source
LHBP TAF 2021/01/20 21:24 UTC NOAA

TAF
AMD TAF
AMD LHBP 202100Z 2021/2118 18010KT CAVOK
TEMPO 2021/2106 BKN035
BECMG 2107/2109 19015G25KT
BECMG 2109/2111 SCT030 BKN220
BECMG 2115/2117 17008KT CAVOK

Example: see airport list